Time;durP1;ratioP1;P1;durP2;ratioP2;P2;SDS_P1;SDS_P2;PMS_P1;PMS_P2;Temp;Humidity;BMP_temperature;BMP_pressure;BME280_temperature;BME280_humidity;BME280_pressure;Samples;Min_cycle;Max_cycle;Signal;HPM_P1;HPM_P2
2023/09/23 00:01:33;;;;;;;0.70;0.70;;;20.40;67.80;;;;;;5053200;28;20198;-67
2023/09/23 00:03:58;;;;;;;0.60;0.60;;;20.40;67.80;;;;;;5053727;28;20763;-68
2023/09/23 00:06:24;;;;;;;0.80;0.70;;;20.40;67.80;;;;;;5053726;28;20233;-68
2023/09/23 00:08:50;;;;;;;0.73;0.52;;;20.40;67.80;;;;;;5053059;28;20193;-66
2023/09/23 00:11:16;;;;;;;0.90;0.73;;;20.40;67.80;;;;;;5053303;28;20171;-67
2023/09/23 00:13:41;;;;;;;0.70;0.70;;;20.40;67.80;;;;;;5053737;28;20229;-67
2023/09/23 00:16:08;;;;;;;1.27;0.90;;;20.40;67.80;;;;;;5052536;28;20183;-67
2023/09/23 00:18:34;;;;;;;0.70;0.70;;;20.40;67.80;;;;;;5052798;28;20206;-67
2023/09/23 00:20:59;;;;;;;0.63;0.63;;;20.40;67.90;;;;;;5053501;28;20205;-68
2023/09/23 00:23:25;;;;;;;0.70;0.70;;;20.40;67.80;;;;;;5052469;28;20203;-68
2023/09/23 00:25:51;;;;;;;0.90;0.68;;;20.40;67.80;;;;;;5053520;28;20167;-68
2023/09/23 00:28:20;;;;;;;0.60;0.60;;;20.30;67.70;;;;;;5052853;28;20179;-68
2023/09/23 00:30:46;;;;;;;0.73;0.60;;;20.30;67.70;;;;;;5052522;28;20268;-67
2023/09/23 00:33:16;;;;;;;0.60;0.60;;;20.40;67.80;;;;;;5052846;28;20171;-67
2023/09/23 00:35:45;;;;;;;0.60;0.60;;;20.30;67.70;;;;;;5053047;28;20644;-67
2023/09/23 00:38:12;;;;;;;0.73;0.73;;;20.50;67.90;;;;;;5051944;28;20230;-67
2023/09/23 00:40:38;;;;;;;0.77;0.77;;;20.40;67.80;;;;;;5053067;28;20171;-67
2023/09/23 00:43:11;;;;;;;0.57;0.57;;;20.30;67.70;;;;;;5052810;28;20198;-67
2023/09/23 00:45:38;;;;;;;0.47;0.47;;;20.40;67.80;;;;;;5052050;28;20580;-67
2023/09/23 00:48:08;;;;;;;0.68;0.68;;;20.40;68.60;;;;;;5065705;28;20171;-68
2023/09/23 00:50:34;;;;;;;0.63;0.60;;;20.30;67.60;;;;;;5054962;28;20307;-67
2023/09/23 00:52:59;;;;;;;0.50;0.50;;;20.30;67.70;;;;;;5054930;28;20198;-67
2023/09/23 00:55:25;;;;;;;0.75;0.70;;;20.30;67.70;;;;;;5054750;28;20633;-67
2023/09/23 00:57:55;;;;;;;0.50;0.50;;;20.30;67.60;;;;;;5037733;28;20520;-67
2023/09/23 01:00:29;;;;;;;1.17;0.82;;;20.30;67.60;;;;;;5072185;28;20680;-67
2023/09/23 01:02:59;;;;;;;1.23;0.73;;;20.30;67.60;;;;;;5072996;28;20178;-68
2023/09/23 01:05:29;;;;;;;0.50;0.50;;;20.30;67.60;;;;;;5071878;28;20182;-68
2023/09/23 01:08:11;;;;;;;0.50;0.50;;;20.30;67.70;;;;;;5072837;28;20189;-67
2023/09/23 01:10:37;;;;;;;0.70;0.65;;;20.30;67.70;;;;;;5072413;28;20359;-67
2023/09/23 01:13:11;;;;;;;0.60;0.60;;;20.30;67.70;;;;;;5071806;28;20231;-67
2023/09/23 01:15:43;;;;;;;0.52;0.52;;;20.30;67.70;;;;;;5072382;28;20527;-67
2023/09/23 01:18:21;;;;;;;0.68;0.60;;;20.30;67.60;;;;;;5072291;28;20614;-67
2023/09/23 01:20:51;;;;;;;0.90;0.70;;;20.30;67.70;;;;;;5071901;28;20308;-67
2023/09/23 01:23:17;;;;;;;0.85;0.70;;;20.30;67.60;;;;;;5072307;28;20179;-68
2023/09/23 01:25:43;;;;;;;0.73;0.65;;;20.20;67.60;;;;;;5071948;28;20179;-68
2023/09/23 01:28:11;;;;;;;0.65;0.50;;;20.30;67.60;;;;;;5071918;28;20244;-67
2023/09/23 01:30:37;;;;;;;0.50;0.50;;;20.30;67.60;;;;;;5071751;28;20301;-67
2023/09/23 01:33:08;;;;;;;0.52;0.50;;;20.30;67.60;;;;;;5071635;28;20220;-67
2023/09/23 01:35:34;;;;;;;1.00;0.70;;;20.30;67.60;;;;;;5072397;28;20175;-67
2023/09/23 01:38:02;;;;;;;0.60;0.60;;;20.20;67.60;;;;;;5071856;28;20333;-67
2023/09/23 01:40:31;;;;;;;0.68;0.60;;;20.30;67.60;;;;;;5071488;28;20624;-67
2023/09/23 01:42:57;;;;;;;0.65;0.57;;;20.30;67.60;;;;;;5072461;28;20182;-68
2023/09/23 01:45:23;;;;;;;0.50;0.50;;;20.30;67.60;;;;;;5072221;28;20179;-68
2023/09/23 01:47:49;;;;;;;0.60;0.60;;;20.30;67.60;;;;;;5060190;28;20202;-67
2023/09/23 01:50:18;;;;;;;0.80;0.70;;;20.30;67.60;;;;;;5051865;28;20245;-67
2023/09/23 01:52:43;;;;;;;0.50;0.50;;;20.30;67.60;;;;;;5052493;28;20179;-68
2023/09/23 01:55:10;;;;;;;0.47;0.47;;;20.30;67.60;;;;;;5051693;28;20680;-67
2023/09/23 01:57:36;;;;;;;0.60;0.60;;;20.30;67.60;;;;;;5052152;28;20533;-67
2023/09/23 02:00:04;;;;;;;0.47;0.47;;;20.30;67.60;;;;;;5052080;28;20220;-67
2023/09/23 02:02:30;;;;;;;0.77;0.50;;;20.30;67.60;;;;;;5051357;28;20186;-67
2023/09/23 02:04:56;;;;;;;0.40;0.40;;;20.20;67.60;;;;;;5052111;28;20175;-68
2023/09/23 02:07:22;;;;;;;0.50;0.50;;;20.30;67.50;;;;;;5051908;28;20172;-67
2023/09/23 02:09:47;;;;;;;0.70;0.70;;;20.20;67.50;;;;;;5051519;28;20573;-67
2023/09/23 02:12:14;;;;;;;0.35;0.35;;;20.30;67.60;;;;;;5051978;28;20168;-67
2023/09/23 02:14:40;;;;;;;0.60;0.60;;;20.20;67.50;;;;;;5052102;28;20183;-67
2023/09/23 02:17:06;;;;;;;0.90;0.60;;;20.30;67.60;;;;;;5051278;28;20178;-67
2023/09/23 02:19:31;;;;;;;0.50;0.40;;;20.20;67.70;;;;;;5051825;28;20179;-68
2023/09/23 02:21:57;;;;;;;1.33;0.60;;;20.30;67.60;;;;;;5051351;28;20175;-67
2023/09/23 02:24:22;;;;;;;0.63;0.63;;;20.20;67.50;;;;;;5051871;28;20253;-67
2023/09/23 02:26:49;;;;;;;0.70;0.65;;;20.20;67.50;;;;;;5052100;28;20213;-68
2023/09/23 02:29:15;;;;;;;0.70;0.70;;;20.20;67.60;;;;;;5050930;28;20206;-68
2023/09/23 02:31:48;;;;;;;0.63;0.55;;;20.20;67.60;;;;;;5052100;28;20207;-67
2023/09/23 02:34:20;;;;;;;1.08;0.80;;;20.20;67.50;;;;;;5051787;28;20163;-67
2023/09/23 02:36:46;;;;;;;0.55;0.55;;;20.20;67.50;;;;;;5051144;28;20329;-67
2023/09/23 02:39:20;;;;;;;0.65;0.65;;;20.20;67.50;;;;;;5051621;28;20697;-68
2023/09/23 02:41:50;;;;;;;0.70;0.70;;;20.20;67.50;;;;;;5054931;28;20225;-67
2023/09/23 02:44:20;;;;;;;0.63;0.63;;;20.20;67.50;;;;;;5054314;28;20182;-68
2023/09/23 02:46:49;;;;;;;0.60;0.60;;;20.20;67.50;;;;;;5057978;28;20182;-68
2023/09/23 02:49:15;;;;;;;0.93;0.85;;;20.20;67.60;;;;;;5074801;28;20596;-67
2023/09/23 02:51:44;;;;;;;0.82;0.80;;;20.20;67.50;;;;;;5074619;28;20214;-67
2023/09/23 02:54:11;;;;;;;0.93;0.90;;;20.20;67.50;;;;;;5074912;28;20178;-67
2023/09/23 02:56:36;;;;;;;1.30;0.82;;;20.20;67.50;;;;;;5074959;28;20691;-67
2023/09/23 02:59:12;;;;;;;0.70;0.70;;;20.20;67.50;;;;;;5073956;28;20300;-67
2023/09/23 03:01:39;;;;;;;0.80;0.80;;;20.10;67.40;;;;;;5075181;28;20262;-67
2023/09/23 03:04:16;;;;;;;0.98;0.98;;;20.20;67.50;;;;;;5074030;28;20185;-67
2023/09/23 03:06:55;;;;;;;1.50;1.05;;;20.20;67.50;;;;;;5075057;28;20223;-67
2023/09/23 03:09:23;;;;;;;0.80;0.80;;;20.20;67.50;;;;;;5074330;28;20716;-67
2023/09/23 03:11:53;;;;;;;0.77;0.77;;;20.20;67.50;;;;;;5074367;28;20178;-67
2023/09/23 03:14:22;;;;;;;0.80;0.80;;;20.20;67.60;;;;;;5074629;28;20182;-67
2023/09/23 03:16:53;;;;;;;0.70;0.70;;;20.10;67.40;;;;;;5074819;28;20182;-67
2023/09/23 03:19:25;;;;;;;1.25;0.95;;;20.20;67.40;;;;;;5073461;28;20171;-68
2023/09/23 03:21:51;;;;;;;1.27;1.17;;;20.10;67.40;;;;;;5074682;28;20185;-67
2023/09/23 03:24:17;;;;;;;1.00;0.90;;;20.20;67.50;;;;;;5074337;28;20178;-67
2023/09/23 03:26:46;;;;;;;0.80;0.80;;;20.10;67.50;;;;;;5074236;28;20178;-68
2023/09/23 03:29:13;;;;;;;1.30;1.20;;;20.20;67.60;;;;;;5074049;28;20647;-67
2023/09/23 03:31:39;;;;;;;0.82;0.82;;;20.10;67.40;;;;;;5074635;28;20186;-67
2023/09/23 03:34:05;;;;;;;1.55;1.13;;;20.10;67.40;;;;;;5073467;28;20186;-67
2023/09/23 03:36:31;;;;;;;2.03;1.40;;;20.10;67.50;;;;;;5073990;28;20206;-67
2023/09/23 03:39:00;;;;;;;0.80;0.80;;;20.10;67.50;;;;;;5074591;28;20248;-67
2023/09/23 03:41:27;;;;;;;1.17;1.10;;;20.10;67.40;;;;;;5073697;28;20181;-67
2023/09/23 03:43:54;;;;;;;1.13;1.08;;;20.10;67.50;;;;;;5074330;28;20202;-67
2023/09/23 03:46:19;;;;;;;1.33;1.23;;;20.10;67.50;;;;;;5072952;28;20171;-68
2023/09/23 03:48:46;;;;;;;1.20;1.17;;;20.10;67.50;;;;;;5055059;28;20179;-68
2023/09/23 03:51:14;;;;;;;0.98;0.88;;;20.10;67.40;;;;;;5053501;28;20294;-67
2023/09/23 03:53:40;;;;;;;0.90;0.90;;;20.10;67.40;;;;;;5052793;28;20221;-66
2023/09/23 03:56:05;;;;;;;1.23;1.20;;;20.10;67.40;;;;;;5054022;28;20175;-67
2023/09/23 03:58:31;;;;;;;1.20;1.10;;;20.10;67.40;;;;;;5053949;28;20254;-67
2023/09/23 04:01:01;;;;;;;1.20;1.05;;;20.10;67.40;;;;;;5053431;28;20187;-67
2023/09/23 04:03:27;;;;;;;1.42;1.33;;;20.10;67.40;;;;;;5053559;28;20646;-67
2023/09/23 04:05:57;;;;;;;1.25;0.90;;;20.00;67.40;;;;;;5054046;28;20198;-68
2023/09/23 04:08:23;;;;;;;1.13;1.08;;;20.10;67.40;;;;;;5053003;28;20183;-67
2023/09/23 04:10:49;;;;;;;1.38;1.13;;;20.10;67.50;;;;;;5053778;28;20260;-67
2023/09/23 04:13:15;;;;;;;1.33;1.23;;;20.10;67.40;;;;;;5053285;28;20254;-67
2023/09/23 04:15:41;;;;;;;1.08;1.05;;;20.10;67.40;;;;;;5052115;28;20178;-67
2023/09/23 04:18:08;;;;;;;1.25;1.00;;;20.10;67.40;;;;;;5053175;28;20178;-67
2023/09/23 04:20:34;;;;;;;1.42;1.25;;;20.00;67.40;;;;;;5053644;28;20248;-67
2023/09/23 04:22:59;;;;;;;1.27;1.17;;;20.10;67.40;;;;;;5034629;28;20224;-67
2023/09/23 04:25:25;;;;;;;1.40;1.30;;;20.10;67.40;;;;;;5053394;28;20171;-68
2023/09/23 04:27:50;;;;;;;1.30;1.20;;;20.10;67.40;;;;;;5053479;28;20240;-67
2023/09/23 04:30:16;;;;;;;1.35;1.10;;;20.10;67.40;;;;;;5052197;28;20202;-68
2023/09/23 04:32:42;;;;;;;1.55;1.45;;;20.10;67.40;;;;;;5053199;28;20175;-68
2023/09/23 04:35:08;;;;;;;1.15;1.05;;;20.10;67.40;;;;;;5053210;28;20668;-67
2023/09/23 04:37:37;;;;;;;1.45;1.35;;;20.10;67.40;;;;;;5052333;28;20246;-67
2023/09/23 04:40:10;;;;;;;1.75;1.40;;;20.10;67.40;;;;;;5052903;28;20171;-67
2023/09/23 04:42:42;;;;;;;1.30;1.20;;;20.10;67.40;;;;;;5052480;28;20187;-67
2023/09/23 04:45:09;;;;;;;1.50;1.40;;;20.10;67.40;;;;;;5052656;28;20179;-67
2023/09/23 04:47:37;;;;;;;1.15;1.15;;;20.00;67.30;;;;;;5062237;28;20205;-68
2023/09/23 04:50:04;;;;;;;1.35;1.27;;;20.00;67.30;;;;;;5072004;28;20206;-68
2023/09/23 04:52:33;;;;;;;1.40;1.30;;;20.00;67.30;;;;;;5072812;28;20701;-67
2023/09/23 04:54:59;;;;;;;1.60;1.50;;;20.00;67.40;;;;;;5072768;28;20178;-67
2023/09/23 04:57:24;;;;;;;1.77;1.67;;;20.00;67.40;;;;;;5071990;28;20221;-67
2023/09/23 04:59:54;;;;;;;1.55;1.40;;;20.10;67.40;;;;;;5072828;28;20540;-67
2023/09/23 05:02:20;;;;;;;1.52;1.42;;;20.00;67.30;;;;;;5072310;28;20170;-68
2023/09/23 05:04:46;;;;;;;1.73;1.60;;;20.00;67.30;;;;;;5072031;28;20181;-68
2023/09/23 05:07:14;;;;;;;1.65;1.55;;;20.00;67.40;;;;;;5072534;28;20208;-67
2023/09/23 05:09:41;;;;;;;1.48;1.38;;;20.00;67.40;;;;;;5072524;28;20203;-67
2023/09/23 05:12:08;;;;;;;1.60;1.50;;;20.00;67.30;;;;;;5053999;28;20281;-68
2023/09/23 05:14:34;;;;;;;1.92;1.67;;;20.00;67.40;;;;;;5072439;28;20257;-67
2023/09/23 05:16:59;;;;;;;2.03;1.75;;;20.00;67.40;;;;;;5072550;28;20249;-67
2023/09/23 05:19:31;;;;;;;1.60;1.50;;;20.10;68.30;;;;;;5071917;28;20262;-67
2023/09/23 05:21:57;;;;;;;1.70;1.60;;;20.00;67.40;;;;;;5072540;28;20698;-69
2023/09/23 05:24:26;;;;;;;2.10;1.73;;;20.00;67.30;;;;;;5072635;28;20178;-68
2023/09/23 05:26:53;;;;;;;1.70;1.60;;;20.00;67.30;;;;;;5071763;28;20235;-68
2023/09/23 05:29:18;;;;;;;2.05;1.85;;;20.00;67.30;;;;;;5072188;28;20206;-68
2023/09/23 05:31:44;;;;;;;1.80;1.70;;;20.00;67.40;;;;;;5071906;28;20174;-69
2023/09/23 05:34:11;;;;;;;1.63;1.52;;;20.00;67.30;;;;;;5072319;28;20179;-69
2023/09/23 05:36:36;;;;;;;2.00;1.80;;;20.00;67.40;;;;;;5072321;28;20222;-68
2023/09/23 05:39:07;;;;;;;2.88;2.10;;;20.00;67.30;;;;;;5071371;28;20240;-69
2023/09/23 05:41:33;;;;;;;1.95;1.77;;;20.00;67.30;;;;;;5072281;28;20254;-69
2023/09/23 05:43:59;;;;;;;1.95;1.85;;;20.00;67.40;;;;;;5072467;28;20727;-69
2023/09/23 05:46:25;;;;;;;2.42;1.80;;;20.00;67.40;;;;;;5071335;28;20292;-69
2023/09/23 05:48:51;;;;;;;2.15;1.90;;;20.00;67.40;;;;;;5052744;28;20207;-69
2023/09/23 05:51:16;;;;;;;1.73;1.60;;;20.00;67.40;;;;;;5052021;28;20288;-68
2023/09/23 05:53:42;;;;;;;2.80;1.88;;;20.00;67.40;;;;;;5051906;28;20171;-68
2023/09/23 05:56:08;;;;;;;2.50;1.88;;;20.00;67.30;;;;;;5051971;28;20725;-69
2023/09/23 05:58:34;;;;;;;1.90;1.80;;;20.00;67.30;;;;;;5052387;28;20171;-68
2023/09/23 06:00:59;;;;;;;2.03;1.80;;;20.00;67.30;;;;;;5051693;28;20175;-68
2023/09/23 06:03:25;;;;;;;2.08;1.98;;;20.00;67.30;;;;;;5052443;28;20167;-71
2023/09/23 06:05:53;;;;;;;2.00;1.80;;;20.00;67.30;;;;;;5052395;28;20660;-68
2023/09/23 06:08:19;;;;;;;1.77;1.67;;;20.00;67.40;;;;;;5051055;28;20206;-68
2023/09/23 06:10:44;;;;;;;2.10;1.90;;;20.00;67.50;;;;;;5051941;28;20242;-68
2023/09/23 06:13:10;;;;;;;1.88;1.77;;;20.00;67.40;;;;;;5051914;28;20176;-68
2023/09/23 06:15:35;;;;;;;2.13;1.92;;;20.00;67.40;;;;;;5052731;28;20194;-68
2023/09/23 06:18:01;;;;;;;1.70;1.60;;;20.00;67.30;;;;;;5055656;28;20220;-69
2023/09/23 06:20:27;;;;;;;2.20;2.00;;;19.90;67.30;;;;;;5055784;28;20669;-68
2023/09/23 06:22:52;;;;;;;2.30;1.75;;;20.00;67.40;;;;;;5055072;28;20262;-69
2023/09/23 06:25:18;;;;;;;2.05;1.95;;;20.00;67.40;;;;;;5055214;28;20175;-68
2023/09/23 06:27:43;;;;;;;1.95;1.80;;;20.00;67.30;;;;;;5055912;28;20171;-69
2023/09/23 06:30:09;;;;;;;1.77;1.67;;;20.00;67.40;;;;;;5054772;28;20203;-69
2023/09/23 06:32:35;;;;;;;2.28;2.10;;;19.90;67.30;;;;;;5055599;28;20633;-68
2023/09/23 06:35:01;;;;;;;2.22;1.90;;;20.00;67.40;;;;;;5054858;28;20198;-68
2023/09/23 06:37:27;;;;;;;2.38;2.03;;;20.00;67.40;;;;;;5055202;28;20226;-69
2023/09/23 06:39:53;;;;;;;2.20;2.10;;;20.00;67.30;;;;;;5055219;28;20541;-69
2023/09/23 06:42:18;;;;;;;1.90;1.80;;;20.00;67.30;;;;;;5054587;28;20179;-69
2023/09/23 06:44:45;;;;;;;1.90;1.80;;;20.00;67.20;;;;;;5055503;28;20666;-68
2023/09/23 06:47:10;;;;;;;2.92;2.00;;;20.00;67.30;;;;;;5060885;28;20173;-69
2023/09/23 06:49:36;;;;;;;2.08;1.98;;;20.00;67.30;;;;;;5074479;28;20289;-68
2023/09/23 06:52:02;;;;;;;2.40;2.20;;;20.00;67.30;;;;;;5074800;28;20308;-68
2023/09/23 06:54:27;;;;;;;1.83;1.73;;;20.00;67.30;;;;;;5075061;28;20186;-68
2023/09/23 06:56:54;;;;;;;2.30;2.20;;;20.00;67.30;;;;;;5056853;28;20163;-68
2023/09/23 06:59:20;;;;;;;2.15;2.05;;;20.00;67.20;;;;;;5074967;28;20268;-68
2023/09/23 07:01:45;;;;;;;2.10;2.00;;;20.00;67.20;;;;;;5074923;28;20269;-69
2023/09/23 07:04:11;;;;;;;2.00;1.90;;;19.90;67.10;;;;;;5073883;28;20174;-69
2023/09/23 07:06:37;;;;;;;2.08;1.95;;;20.00;67.10;;;;;;5074742;28;20174;-68
2023/09/23 07:09:05;;;;;;;2.28;2.00;;;20.00;66.90;;;;;;5074469;28;20188;-68
2023/09/23 07:11:30;;;;;;;2.38;2.17;;;20.00;67.00;;;;;;5073985;28;20182;-67
2023/09/23 07:13:58;;;;;;;2.03;1.83;;;20.00;67.00;;;;;;5074852;28;20177;-68
2023/09/23 07:16:24;;;;;;;2.20;2.10;;;20.00;67.10;;;;;;5074745;28;20192;-68
2023/09/23 07:18:50;;;;;;;2.47;2.28;;;20.00;66.80;;;;;;5074111;28;20201;-68
2023/09/23 07:21:16;;;;;;;2.33;2.13;;;20.00;66.80;;;;;;5074163;28;20175;-68
2023/09/23 07:23:42;;;;;;;1.90;1.80;;;20.00;66.80;;;;;;5074549;28;20223;-68
2023/09/23 07:26:07;;;;;;;2.72;2.45;;;20.00;66.90;;;;;;5073423;28;20266;-68
2023/09/23 07:28:33;;;;;;;2.00;1.90;;;20.00;67.50;;;;;;5073531;28;20162;-68
2023/09/23 07:30:58;;;;;;;1.80;1.70;;;20.00;66.60;;;;;;5073606;28;20229;-68
2023/09/23 07:33:24;;;;;;;2.38;2.17;;;20.00;66.60;;;;;;5073573;28;20645;-68
2023/09/23 07:35:49;;;;;;;2.20;2.10;;;20.10;66.70;;;;;;5074331;28;20624;-68
2023/09/23 07:38:15;;;;;;;2.42;2.22;;;20.00;66.40;;;;;;5073766;28;20233;-68
2023/09/23 07:40:41;;;;;;;2.15;1.95;;;20.00;66.50;;;;;;5073763;28;20174;-68
2023/09/23 07:43:07;;;;;;;2.33;2.22;;;20.00;66.60;;;;;;5073859;28;20181;-68
2023/09/23 07:45:33;;;;;;;2.03;1.92;;;20.10;66.60;;;;;;5073291;28;20249;-68
2023/09/23 07:47:58;;;;;;;2.17;1.98;;;20.00;66.60;;;;;;5061213;28;20187;-68
2023/09/23 07:50:24;;;;;;;2.50;2.25;;;20.00;66.50;;;;;;5053762;28;20210;-68
2023/09/23 07:52:49;;;;;;;2.55;2.00;;;20.00;66.40;;;;;;5053348;28;20171;-68
2023/09/23 07:55:15;;;;;;;2.20;1.90;;;20.00;66.40;;;;;;5053925;28;20626;-67
2023/09/23 07:57:40;;;;;;;2.63;2.42;;;20.00;66.40;;;;;;5053968;28;20175;-68
2023/09/23 08:00:09;;;;;;;2.58;2.22;;;20.00;66.40;;;;;;5053057;28;20194;-68
2023/09/23 08:02:35;;;;;;;2.08;1.88;;;20.00;67.20;;;;;;5053951;28;20258;-68
2023/09/23 08:05:04;;;;;;;2.00;1.88;;;20.10;66.40;;;;;;5053459;28;20210;-68
2023/09/23 08:07:30;;;;;;;2.33;1.85;;;20.00;66.40;;;;;;5052979;28;20262;-68
2023/09/23 08:09:57;;;;;;;2.15;1.95;;;20.00;66.30;;;;;;5053839;28;20288;-68
2023/09/23 08:12:23;;;;;;;2.20;2.05;;;20.00;66.40;;;;;;5053315;28;20748;-68
2023/09/23 08:14:48;;;;;;;2.15;2.05;;;20.10;66.40;;;;;;5053164;28;20186;-68
2023/09/23 08:17:14;;;;;;;2.65;1.90;;;20.10;66.40;;;;;;5053469;28;20174;-68
2023/09/23 08:19:40;;;;;;;2.10;2.00;;;20.10;66.30;;;;;;5053388;28;20229;-68
2023/09/23 08:22:06;;;;;;;1.85;1.75;;;20.10;66.30;;;;;;5052526;28;20653;-68
2023/09/23 08:24:31;;;;;;;1.95;1.85;;;20.10;66.30;;;;;;5053527;28;20637;-68
2023/09/23 08:26:57;;;;;;;1.83;1.73;;;20.10;66.30;;;;;;5053468;28;20175;-68
2023/09/23 08:29:24;;;;;;;2.10;1.73;;;20.10;66.20;;;;;;5052855;28;20175;-68
2023/09/23 08:31:50;;;;;;;1.75;1.65;;;20.10;66.30;;;;;;5053507;28;20272;-68
2023/09/23 08:34:17;;;;;;;1.85;1.75;;;20.20;66.30;;;;;;5052893;28;20626;-68
2023/09/23 08:36:42;;;;;;;1.65;1.55;;;20.20;66.10;;;;;;5052262;28;20254;-67
2023/09/23 08:39:09;;;;;;;2.20;2.00;;;20.20;66.20;;;;;;5052640;28;20253;-68
2023/09/23 08:41:35;;;;;;;1.60;1.50;;;20.30;66.30;;;;;;5053081;28;20183;-68
2023/09/23 08:44:07;;;;;;;1.73;1.63;;;20.30;66.10;;;;;;5052462;28;20175;-68
2023/09/23 08:46:33;;;;;;;2.08;1.98;;;20.30;66.00;;;;;;5036956;28;20171;-68
2023/09/23 08:49:03;;;;;;;2.22;1.90;;;20.30;66.00;;;;;;5071957;28;20173;-68
2023/09/23 08:51:29;;;;;;;1.45;1.42;;;20.30;66.10;;;;;;5072964;28;20245;-68
2023/09/23 08:53:55;;;;;;;1.80;1.70;;;20.30;66.40;;;;;;5055339;28;20202;-67
2023/09/23 08:56:21;;;;;;;1.77;1.67;;;20.30;66.40;;;;;;5071726;28;20174;-67
2023/09/23 08:58:48;;;;;;;2.08;1.88;;;20.20;66.40;;;;;;5072971;28;20178;-68
2023/09/23 09:01:16;;;;;;;2.05;1.92;;;20.20;66.40;;;;;;5072531;28;20179;-68
2023/09/23 09:03:42;;;;;;;2.00;1.80;;;20.20;66.50;;;;;;5072069;28;20265;-68
2023/09/23 09:06:21;;;;;;;2.20;2.00;;;20.20;66.50;;;;;;5072528;28;20269;-68
2023/09/23 09:08:47;;;;;;;1.67;1.58;;;20.20;66.50;;;;;;5072931;28;20186;-68
2023/09/23 09:11:20;;;;;;;2.88;1.88;;;20.20;66.50;;;;;;5071630;28;20260;-67
2023/09/23 09:13:45;;;;;;;1.98;1.60;;;20.20;66.50;;;;;;5072768;28;20178;-68
2023/09/23 09:16:11;;;;;;;1.85;1.75;;;20.10;66.50;;;;;;5072511;28;20236;-68
2023/09/23 09:18:37;;;;;;;2.05;1.95;;;20.20;66.50;;;;;;5065963;28;20162;-68
2023/09/23 09:21:04;;;;;;;1.52;1.42;;;20.10;66.30;;;;;;5064608;28;20521;-68
2023/09/23 09:23:32;;;;;;;2.17;1.70;;;20.20;66.40;;;;;;5039834;28;20171;-68
2023/09/23 09:25:58;;;;;;;2.20;1.60;;;20.20;66.40;;;;;;5051480;28;20190;-68
2023/09/23 09:28:24;;;;;;;1.85;1.30;;;20.30;66.40;;;;;;5072308;28;20645;-68
2023/09/23 09:30:55;;;;;;;2.15;1.95;;;20.30;66.40;;;;;;5072251;28;20251;-68
2023/09/23 09:33:24;;;;;;;2.53;1.63;;;20.30;66.40;;;;;;5054906;28;20248;-67
2023/09/23 09:35:49;;;;;;;2.10;1.90;;;20.30;66.50;;;;;;5054651;28;20171;-67
2023/09/23 09:38:15;;;;;;;1.70;1.60;;;20.20;67.30;;;;;;5035744;28;20233;-68
2023/09/23 09:40:40;;;;;;;1.70;1.60;;;20.20;66.50;;;;;;5071458;28;20193;-72
2023/09/23 09:43:06;;;;;;;3.30;1.70;;;20.20;66.60;;;;;;5071116;28;20177;-69
2023/09/23 09:45:40;;;;;;;6.38;2.15;;;20.20;66.60;;;;;;5053080;28;20178;-72
2023/09/23 09:48:06;;;;;;;4.80;1.88;;;20.20;66.70;;;;;;5071358;28;20178;-68
2023/09/23 09:50:32;;;;;;;3.47;1.90;;;20.20;66.70;;;;;;5054901;28;20301;-67
2023/09/23 09:52:58;;;;;;;1.80;1.45;;;20.20;66.70;;;;;;5057484;28;20174;-67
2023/09/23 09:55:24;;;;;;;1.90;1.55;;;20.20;66.70;;;;;;5075993;28;20181;-66
2023/09/23 09:57:50;;;;;;;2.63;1.60;;;20.20;66.60;;;;;;5058456;28;20174;-67
2023/09/23 10:00:40;;;;;;;2.28;1.70;;;20.20;66.70;;;;;;5057312;28;20262;-68
2023/09/23 10:03:06;;;;;;;2.45;1.75;;;20.20;66.70;;;;;;5075410;28;20273;-68
2023/09/23 10:05:33;;;;;;;3.10;1.48;;;20.20;66.70;;;;;;5058515;28;20258;-70
2023/09/23 10:07:59;;;;;;;2.55;1.50;;;20.20;66.70;;;;;;5075240;28;20171;-68
2023/09/23 10:10:32;;;;;;;2.95;1.50;;;20.20;66.80;;;;;;5075330;28;20214;-67
2023/09/23 10:13:13;;;;;;;2.13;1.50;;;20.20;66.70;;;;;;5075793;28;20174;-68
2023/09/23 10:15:40;;;;;;;2.65;1.60;;;20.20;66.70;;;;;;5075552;28;20178;-68
2023/09/23 10:18:24;;;;;;;1.50;1.40;;;20.20;66.70;;;;;;5075543;28;20182;-68
2023/09/23 10:20:51;;;;;;;3.45;1.88;;;20.20;66.70;;;;;;5074980;28;20175;-67
2023/09/23 10:23:18;;;;;;;2.08;1.50;;;20.20;66.70;;;;;;5075374;28;20254;-68
2023/09/23 10:25:44;;;;;;;1.90;1.50;;;20.20;66.70;;;;;;5075884;28;20179;-68
2023/09/23 10:28:23;;;;;;;1.58;1.40;;;20.20;66.70;;;;;;5074202;28;20173;-68
2023/09/23 10:30:58;;;;;;;3.83;1.40;;;20.20;66.70;;;;;;5075474;28;20210;-67
2023/09/23 10:33:26;;;;;;;1.88;1.60;;;20.20;66.70;;;;;;5075162;28;20174;-67
2023/09/23 10:35:52;;;;;;;1.42;1.30;;;20.20;66.70;;;;;;5074874;28;20228;-67
2023/09/23 10:38:25;;;;;;;1.60;1.40;;;20.20;66.70;;;;;;5074392;28;20760;-67
2023/09/23 10:40:52;;;;;;;2.40;1.73;;;20.20;66.70;;;;;;5075149;28;20190;-67
2023/09/23 10:43:18;;;;;;;3.47;1.25;;;20.30;66.70;;;;;;5073839;28;20224;-68
2023/09/23 10:45:44;;;;;;;3.90;1.48;;;20.20;66.60;;;;;;5055821;28;20266;-68
2023/09/23 10:48:09;;;;;;;5.43;1.60;;;20.30;66.60;;;;;;5037141;28;20259;-68
2023/09/23 10:50:35;;;;;;;2.45;1.70;;;20.30;66.60;;;;;;5054043;28;20230;-68
2023/09/23 10:53:01;;;;;;;1.60;1.50;;;20.30;66.70;;;;;;5054848;28;20175;-67
2023/09/23 10:55:26;;;;;;;4.53;1.52;;;20.30;66.70;;;;;;5053967;28;20175;-67
2023/09/23 10:57:53;;;;;;;1.65;1.50;;;20.30;66.70;;;;;;5037288;28;20202;-68
2023/09/23 11:00:20;;;;;;;1.75;1.30;;;20.30;66.70;;;;;;5036838;28;20599;-68
2023/09/23 11:02:50;;;;;;;2.92;1.40;;;20.30;66.70;;;;;;5036576;28;20179;-64
2023/09/23 11:05:16;;;;;;;4.07;1.40;;;20.40;66.70;;;;;;5054706;28;20183;-64
2023/09/23 11:07:42;;;;;;;1.42;1.33;;;20.30;66.60;;;;;;5054965;28;20179;-65
2023/09/23 11:10:11;;;;;;;1.80;1.70;;;20.30;66.70;;;;;;5053667;28;20199;-63
2023/09/23 11:12:36;;;;;;;3.00;1.40;;;20.30;66.70;;;;;;5054769;28;20182;-63
2023/09/23 11:15:02;;;;;;;1.77;1.48;;;20.30;66.70;;;;;;5054389;28;20171;-64
2023/09/23 11:17:29;;;;;;;3.17;1.33;;;20.30;66.70;;;;;;5053767;28;20172;-64
2023/09/23 11:19:58;;;;;;;2.13;1.48;;;20.30;66.80;;;;;;5054862;28;20179;-64
2023/09/23 11:22:28;;;;;;;2.03;1.50;;;20.30;66.80;;;;;;5054493;28;20250;-63
2023/09/23 11:24:54;;;;;;;3.30;1.45;;;20.30;66.70;;;;;;5053882;28;20238;-64
2023/09/23 11:27:20;;;;;;;5.30;1.67;;;20.30;66.70;;;;;;5054164;28;20266;-64
2023/09/23 11:29:46;;;;;;;3.30;1.48;;;20.40;66.90;;;;;;5036950;28;20219;-64
2023/09/23 11:32:11;;;;;;;2.80;1.23;;;20.40;66.90;;;;;;5053596;28;20171;-64
2023/09/23 11:34:37;;;;;;;2.83;1.75;;;20.40;66.90;;;;;;5054460;28;20194;-63
2023/09/23 11:37:02;;;;;;;1.60;1.50;;;20.30;67.70;;;;;;5053884;28;20218;-64
2023/09/23 11:39:32;;;;;;;3.53;1.25;;;20.20;67.00;;;;;;5053177;28;20179;-64
2023/09/23 11:41:58;;;;;;;2.33;1.33;;;20.30;67.10;;;;;;5053987;28;20240;-63
2023/09/23 11:44:24;;;;;;;2.83;1.48;;;20.20;67.00;;;;;;5054224;28;20692;-64
2023/09/23 11:46:49;;;;;;;5.00;2.10;;;20.20;67.10;;;;;;5053442;28;20668;-65
2023/09/23 11:49:15;;;;;;;2.92;1.60;;;20.20;67.20;;;;;;5053984;28;20198;-65
2023/09/23 11:51:41;;;;;;;5.35;1.83;;;20.20;67.30;;;;;;5053234;28;20270;-64
2023/09/23 11:54:10;;;;;;;4.15;1.40;;;20.20;67.30;;;;;;5053643;28;20183;-62
2023/09/23 11:56:35;;;;;;;5.10;1.75;;;20.20;67.40;;;;;;5053889;28;20182;-63
2023/09/23 11:59:01;;;;;;;2.30;1.20;;;20.20;67.30;;;;;;5053094;28;20255;-64
2023/09/23 12:01:27;;;;;;;6.97;1.60;;;20.20;67.30;;;;;;5053766;28;20660;-63
2023/09/23 12:03:58;;;;;;;4.22;1.30;;;20.30;67.30;;;;;;5054080;28;20179;-64
2023/09/23 12:06:27;;;;;;;4.95;1.70;;;20.30;67.20;;;;;;5053047;28;20183;-64
2023/09/23 12:08:53;;;;;;;2.33;1.38;;;20.20;67.10;;;;;;5053866;28;20561;-65
2023/09/23 12:11:21;;;;;;;1.98;1.08;;;20.30;67.20;;;;;;5053214;28;20211;-65
2023/09/23 12:13:47;;;;;;;1.85;1.20;;;20.30;67.10;;;;;;5052351;28;20634;-64
2023/09/23 12:16:13;;;;;;;5.15;1.50;;;20.30;67.10;;;;;;5053626;28;20182;-64
2023/09/23 12:18:38;;;;;;;2.28;1.40;;;20.30;67.10;;;;;;5053604;28;20249;-64
2023/09/23 12:21:04;;;;;;;1.90;1.30;;;20.30;67.20;;;;;;5051942;28;20183;-64
2023/09/23 12:23:31;;;;;;;2.70;1.50;;;20.40;66.90;;;;;;5053576;28;20171;-64
2023/09/23 12:25:56;;;;;;;2.03;1.40;;;20.50;66.90;;;;;;5053748;28;20179;-64
2023/09/23 12:28:22;;;;;;;1.70;1.40;;;20.40;66.80;;;;;;5052615;28;20555;-65
2023/09/23 12:30:48;;;;;;;1.67;1.20;;;20.50;66.70;;;;;;5053378;28;20213;-64
2023/09/23 12:33:13;;;;;;;2.35;1.33;;;20.50;66.50;;;;;;5053282;28;20725;-64
2023/09/23 12:35:39;;;;;;;2.80;1.27;;;20.50;66.70;;;;;;5052557;28;20183;-64
2023/09/23 12:38:04;;;;;;;1.58;1.08;;;20.50;66.80;;;;;;5052702;28;20221;-64
2023/09/23 12:40:32;;;;;;;2.90;1.67;;;20.50;66.80;;;;;;5053366;28;20218;-64
2023/09/23 12:42:57;;;;;;;2.45;1.17;;;20.50;66.60;;;;;;5035306;28;20175;-64
2023/09/23 12:45:23;;;;;;;3.00;1.40;;;20.50;66.80;;;;;;5052990;28;20175;-64
2023/09/23 12:47:48;;;;;;;4.00;1.60;;;20.50;66.80;;;;;;5052416;28;20181;-65